Airfield :
LOGIN :

Register | Disclaimer

   EN    FR    IT 

 










Legend :    VFR   Marginal VFR   IFR   Intensive IFR   Very Intensive IFR
Visi :
Ceiling :
>= 8 km
>= 3000ft
5 to 8 km
1000 to 3000 ft
1500m to 5 km
500 to 1000 ft
800 to 1500m
200 to 500 ft
< 800m
< 200 ft
Symbols :   Thunderstorms  Fog  Heavy snow  Heavy precipitations  Wind > 20 kt
SIGMETs :     Misc.  Thunderstorms  Icing  Turbulence  Mountain Waves  Volcanic Ashes







- Airport Elevation : 16 ft
- IATA code : SDR


LEXJ - Santander Cantabria

CURRENT METAR :
  • 241230Z 34006KT 300V030 9999 FEW016 17/12 Q1027

EXPIRED METARs :
  • 241200Z 34004KT 260V050 9999 FEW016 17/12 Q1027
  • 241130Z 32003KT 9999 FEW016 17/12 Q1027
  • 241100Z 29003KT 210V010 9000 FEW014 16/12 Q1027
  • 241030Z 26004KT 170V320 9000 SCT014 15/12 Q1027
  • 241000Z 29003KT 240V050 8000 SCT014 15/12 Q1027

TAF AMD TAF LEXJ
Valid from the 24 at 09:00 until the 25 at 09:00 UTC


240925Z 2409/2509 29006KT 9000 NSC TX17/2413Z TN08/2506Z
PROB30
TEMPO 2409/2412 4500 BR
PROB40
TEMPO 2412/2418 01010KT
TEMPO 2420/2508 3000 BR
PROB40
TEMPO 2420/2507 1500 BCFG BKN005
PROB30
TEMPO 2423/2504 0800 FG VV001
No reported NOTAMs for that airfield.



MET'MAP, your aeronautical weather chart ! - Copyright ORBIFLY December 2007 - Disclaimer

ORBIFLY MET'MAP TEAM :

Programming & Development : Alexandra Zaïnal
Concept & Development : Baudouin d'Aumeries
Co-Development & Prog : Marc-Olivier Méhu
Technical & hardware support : Manuel Goepfert

Contact : metmap@orbifly.com




SOURCES & CREDITS :

   NOAA